createdAt,value
2023-05-23T00:01:00.880Z,3.63
2023-05-23T00:06:23.396Z,2.97
2023-05-23T00:11:45.994Z,3.75
2023-05-23T00:17:10.733Z,3.17
2023-05-23T00:22:33.093Z,3.80
2023-05-23T00:27:55.524Z,3.63
2023-05-23T00:33:22.130Z,3.80
2023-05-23T00:38:46.101Z,3.50
2023-05-23T00:44:11.220Z,3.50
2023-05-23T00:49:34.696Z,3.70
2023-05-23T00:54:57.645Z,3.58
2023-05-23T01:00:20.683Z,3.72
2023-05-23T01:05:44.144Z,3.83
2023-05-23T01:11:16.030Z,3.78
2023-05-23T01:16:50.605Z,3.90
2023-05-23T01:22:28.190Z,3.50
2023-05-23T01:28:03.584Z,3.67
2023-05-23T01:33:27.172Z,4.03
2023-05-23T01:38:49.464Z,3.92
2023-05-23T01:44:12.460Z,3.83
2023-05-23T01:49:36.962Z,3.35
2023-05-23T01:55:00.384Z,3.60
2023-05-23T02:00:23.343Z,4.15
2023-05-23T02:05:45.828Z,4.10
2023-05-23T02:11:09.042Z,4.28
2023-05-23T02:16:33.395Z,3.67
2023-05-23T02:21:55.882Z,3.83
2023-05-23T02:27:18.965Z,3.88
2023-05-23T02:32:43.637Z,4.65
2023-05-23T02:38:06.374Z,4.47
2023-05-23T02:43:28.962Z,4.70
2023-05-23T02:48:51.391Z,4.13
2023-05-23T02:54:14.007Z,4.65
2023-05-23T02:59:36.128Z,4.88
2023-05-23T03:04:58.501Z,4.07
2023-05-23T03:10:21.277Z,4.00
2023-05-23T03:15:43.832Z,4.35
2023-05-23T03:21:06.282Z,4.68
2023-05-23T03:26:28.920Z,4.63
2023-05-23T03:31:52.094Z,4.55
2023-05-23T03:37:14.725Z,4.68
2023-05-23T03:42:39.706Z,4.97
2023-05-23T03:48:02.625Z,4.73
2023-05-23T03:53:26.099Z,4.93
2023-05-23T03:58:48.734Z,4.67
2023-05-23T04:04:12.199Z,4.82
2023-05-23T04:09:34.883Z,4.57
2023-05-23T04:14:59.165Z,5.05
2023-05-23T04:20:21.975Z,4.73
2023-05-23T04:25:44.472Z,4.73
2023-05-23T04:31:13.031Z,4.50
2023-05-23T04:36:38.241Z,5.10
2023-05-23T04:42:01.264Z,5.68
2023-05-23T04:47:49.178Z,6.13
2023-05-23T04:53:27.816Z,5.93
2023-05-23T04:58:51.563Z,5.37
2023-05-23T05:04:14.339Z,5.80
2023-05-23T05:09:37.211Z,5.20
2023-05-23T05:15:00.282Z,5.63
2023-05-23T05:20:23.767Z,5.18
2023-05-23T05:25:46.730Z,5.70
2023-05-23T05:31:10.226Z,5.75
2023-05-23T05:36:33.220Z,5.43
2023-05-23T05:41:56.360Z,5.73
2023-05-23T05:47:19.064Z,5.80
2023-05-23T05:52:42.459Z,6.10
2023-05-23T05:58:05.672Z,6.63
2023-05-23T06:03:42.219Z,6.40
2023-05-23T06:09:05.180Z,6.65
2023-05-23T06:14:27.686Z,6.20
2023-05-23T06:19:51.448Z,6.60
2023-05-23T06:25:14.079Z,7.88
2023-05-23T06:30:38.689Z,7.40
2023-05-23T06:36:03.326Z,6.83
2023-05-23T06:41:27.767Z,7.13
2023-05-23T06:46:50.965Z,6.83
2023-05-23T06:52:13.361Z,7.10
2023-05-23T06:57:39.724Z,7.53
2023-05-23T07:03:03.781Z,7.33
2023-05-23T07:08:26.810Z,7.00
2023-05-23T07:13:59.860Z,7.78
2023-05-23T07:19:40.892Z,6.83
2023-05-23T07:25:03.169Z,7.70
2023-05-23T07:30:29.580Z,8.13
2023-05-23T07:35:54.045Z,7.43
2023-05-23T07:41:16.590Z,7.28
2023-05-23T07:46:39.406Z,7.22
2023-05-23T07:52:02.298Z,7.18
2023-05-23T07:57:28.149Z,7.30
2023-05-23T08:02:50.639Z,7.18
2023-05-23T08:08:19.518Z,6.78
2023-05-23T08:13:42.232Z,6.68
2023-05-23T08:19:36.292Z,6.75
2023-05-23T08:24:59.149Z,7.75
2023-05-23T08:30:23.541Z,7.20
2023-05-23T08:35:46.762Z,7.32
2023-05-23T08:41:30.957Z,7.53
2023-05-23T08:47:09.148Z,7.75
2023-05-23T08:52:45.860Z,7.60
2023-05-23T08:58:08.988Z,7.38
2023-05-23T09:03:40.312Z,7.50
2023-05-23T09:09:10.040Z,7.05
2023-05-23T09:14:33.227Z,7.70
2023-05-23T09:20:01.935Z,8.25
2023-05-23T09:25:46.761Z,7.20
2023-05-23T09:31:10.693Z,7.32
2023-05-23T09:36:35.266Z,7.05
2023-05-23T09:42:01.184Z,6.18
2023-05-23T09:47:24.076Z,6.18
2023-05-23T09:52:47.271Z,5.60
2023-05-23T09:58:10.846Z,5.43
2023-05-23T10:04:00.055Z,5.53
2023-05-23T10:09:27.272Z,5.20
2023-05-23T10:15:03.170Z,5.05
2023-05-23T10:20:29.497Z,5.00
2023-05-23T10:25:52.530Z,5.53
2023-05-23T10:31:15.508Z,4.80
2023-05-23T10:37:07.241Z,5.10
2023-05-23T10:43:18.293Z,4.68
2023-05-23T10:48:43.509Z,5.20
2023-05-23T10:54:13.501Z,4.65
2023-05-23T10:59:38.499Z,5.05
2023-05-23T11:05:23.864Z,4.95
2023-05-23T11:10:52.178Z,5.50
2023-05-23T11:16:50.656Z,6.07
2023-05-23T11:22:13.740Z,6.60
2023-05-23T11:27:38.811Z,6.07
2023-05-23T11:33:01.612Z,5.80
2023-05-23T11:38:27.077Z,6.22
2023-05-23T11:43:55.455Z,6.82
2023-05-23T11:49:18.354Z,7.55
2023-05-23T11:54:44.912Z,8.07
2023-05-23T12:00:13.473Z,8.77
2023-05-23T12:05:37.685Z,9.65
2023-05-23T12:11:02.049Z,9.75
2023-05-23T12:16:24.893Z,8.93
2023-05-23T12:21:49.399Z,9.18
2023-05-23T12:27:11.625Z,8.77
2023-05-23T12:32:34.323Z,9.98
2023-05-23T12:37:58.920Z,9.50
2023-05-23T12:43:23.656Z,9.30
2023-05-23T12:48:47.497Z,8.43
2023-05-23T12:54:10.107Z,9.88
2023-05-23T12:59:32.392Z,12.27
2023-05-23T13:04:55.063Z,11.15
2023-05-23T13:10:17.768Z,9.25
2023-05-23T13:15:40.984Z,8.50
2023-05-23T13:21:05.351Z,9.80
2023-05-23T13:26:28.233Z,11.65
2023-05-23T13:31:51.243Z,11.85
2023-05-23T13:37:13.993Z,11.05
2023-05-23T13:42:36.469Z,10.90
2023-05-23T13:47:58.911Z,11.40
2023-05-23T13:53:21.760Z,11.77
2023-05-23T13:58:46.826Z,12.00
2023-05-23T14:04:09.134Z,11.98
2023-05-23T14:09:31.530Z,11.68
2023-05-23T14:14:53.988Z,12.40
2023-05-23T14:20:16.605Z,12.15
2023-05-23T14:25:39.456Z,12.52
2023-05-23T14:31:02.226Z,12.77
2023-05-23T14:36:26.176Z,13.82
2023-05-23T14:41:48.576Z,14.23
2023-05-23T14:47:11.016Z,13.07
2023-05-23T14:52:33.677Z,13.23
2023-05-23T14:57:56.729Z,12.50
2023-05-23T15:03:19.740Z,14.10
2023-05-23T15:08:42.463Z,12.38
2023-05-23T15:14:05.047Z,13.60
2023-05-23T15:19:27.535Z,14.50
2023-05-23T15:24:49.875Z,13.25
2023-05-23T15:30:12.361Z,11.93
2023-05-23T15:35:34.933Z,11.63
2023-05-23T15:40:59.436Z,15.13
2023-05-23T15:46:21.767Z,17.88
2023-05-23T15:51:44.507Z,6.60
2023-05-23T15:57:07.070Z,7.15
2023-05-23T16:02:29.822Z,4.13
2023-05-23T16:07:52.351Z,4.40
2023-05-23T16:13:16.829Z,4.30
2023-05-23T16:18:40.598Z,4.43
2023-05-23T16:24:04.805Z,4.63
2023-05-23T16:29:27.269Z,4.25
2023-05-23T16:34:53.901Z,4.40
2023-05-23T16:40:19.440Z,4.57
2023-05-23T16:45:42.354Z,4.25
2023-05-23T16:51:04.766Z,4.57
2023-05-23T16:56:27.826Z,4.47
2023-05-23T17:01:50.376Z,3.88
2023-05-23T17:07:12.897Z,3.63
2023-05-23T17:12:36.132Z,2.80
2023-05-23T17:17:58.481Z,2.30
2023-05-23T17:23:20.810Z,2.40
2023-05-23T17:28:43.002Z,2.20
2023-05-23T17:34:05.779Z,2.40
2023-05-23T17:39:28.369Z,3.20
2023-05-23T17:44:50.914Z,3.50
2023-05-23T17:50:13.472Z,3.17
2023-05-23T17:55:36.167Z,3.40
2023-05-23T18:01:00.883Z,2.60
2023-05-23T18:06:23.710Z,1.87
2023-05-23T18:11:46.514Z,1.50
2023-05-23T18:17:09.929Z,1.20
2023-05-23T18:22:33.538Z,1.47
2023-05-23T18:28:00.544Z,1.00
2023-05-23T18:33:22.926Z,1.60
2023-05-23T18:38:45.773Z,1.90
2023-05-23T18:44:08.550Z,1.73
2023-05-23T18:49:32.050Z,2.17
2023-05-23T18:54:55.186Z,2.17
2023-05-23T19:00:17.766Z,2.50
2023-05-23T19:05:41.227Z,2.23
2023-05-23T19:11:05.194Z,2.90
2023-05-23T19:16:27.751Z,2.60
2023-05-23T19:21:50.201Z,3.03
2023-05-23T19:27:13.920Z,3.43
2023-05-23T19:32:36.771Z,3.20
2023-05-23T19:37:59.350Z,2.83
2023-05-23T19:43:21.673Z,2.70
2023-05-23T19:48:43.886Z,3.20
2023-05-23T19:54:06.387Z,3.23
2023-05-23T19:59:28.746Z,3.23
2023-05-23T20:04:51.056Z,3.20
2023-05-23T20:10:14.280Z,3.47
2023-05-23T20:15:39.820Z,4.30
2023-05-23T20:21:05.233Z,3.60
2023-05-23T20:26:28.127Z,3.80
2023-05-23T20:31:50.659Z,3.30
2023-05-23T20:37:15.811Z,3.63
2023-05-23T20:42:38.613Z,3.90
2023-05-23T20:48:00.914Z,4.03
2023-05-23T20:53:24.324Z,3.70
2023-05-23T20:58:47.366Z,3.77
2023-05-23T21:04:09.870Z,3.30
2023-05-23T21:09:32.430Z,3.60
2023-05-23T21:15:04.664Z,4.17
2023-05-23T21:20:29.179Z,4.00
2023-05-23T21:25:53.016Z,3.80
2023-05-23T21:31:16.292Z,3.90
2023-05-23T21:36:39.762Z,3.50
2023-05-23T21:42:02.440Z,3.60
2023-05-23T21:47:25.231Z,3.70
2023-05-23T21:52:47.535Z,3.60
2023-05-23T21:58:09.820Z,3.80
2023-05-23T22:03:32.425Z,3.83
2023-05-23T22:08:55.048Z,3.97
2023-05-23T22:14:17.811Z,3.67
2023-05-23T22:19:40.409Z,3.10
2023-05-23T22:25:03.121Z,3.70
2023-05-23T22:30:25.495Z,3.50
2023-05-23T22:35:47.845Z,3.53
2023-05-23T22:41:10.969Z,3.27
2023-05-23T22:46:33.268Z,3.00
2023-05-23T22:51:55.942Z,3.00
2023-05-23T22:57:18.596Z,3.63
2023-05-23T23:02:41.238Z,3.23
2023-05-23T23:08:04.164Z,3.23
2023-05-23T23:13:26.953Z,3.30
2023-05-23T23:18:49.479Z,2.97
2023-05-23T23:24:11.936Z,3.23
2023-05-23T23:29:34.301Z,3.13
2023-05-23T23:34:56.721Z,3.07
2023-05-23T23:40:19.094Z,3.03
2023-05-23T23:45:41.756Z,2.63
2023-05-23T23:51:07.052Z,3.07
2023-05-23T23:56:29.423Z,2.90
